Time;durP1;ratioP1;P1;durP2;ratioP2;P2;SDS_P1;SDS_P2;PMS_P1;PMS_P2;Temp;Humidity;BMP_temperature;BMP_pressure;BME280_temperature;BME280_humidity;BME280_pressure;Samples;Min_cycle;Max_cycle;Signal;HPM_P1;HPM_P2
2022/11/15 00:01:08;;;;;;;54.15;22.33;;;;;;;;;;5014504;28;89302;-61
2022/11/15 00:03:34;;;;;;;47.80;22.63;;;;;;;;;;5011702;28;90174;-62
2022/11/15 00:06:01;;;;;;;54.35;23.27;;;;;;;;;;5024171;27;89661;-62
2022/11/15 00:08:31;;;;;;;59.75;24.13;;;;;;;;;;5015810;28;89364;-61
2022/11/15 00:10:58;;;;;;;59.53;22.33;;;;;;;;;;5014633;28;90045;-62
2022/11/15 00:13:24;;;;;;;56.00;23.65;;;;;;;;;;5017945;28;89490;-61
2022/11/15 00:15:51;;;;;;;61.85;24.40;;;;;;;;;;5014821;28;89984;-62
2022/11/15 00:18:18;;;;;;;55.10;23.58;;;;;;;;;;5003134;28;89473;-61
2022/11/15 00:20:44;;;;;;;57.42;24.83;;;;;;;;;;5016343;27;89942;-62
2022/11/15 00:23:10;;;;;;;58.80;25.00;;;;;;;;;;5017792;28;91060;-61
2022/11/15 00:25:37;;;;;;;65.07;25.23;;;;;;;;;;5021539;28;89892;-61
2022/11/15 00:28:03;;;;;;;63.65;24.65;;;;;;;;;;5015835;27;89604;-61
2022/11/15 00:30:29;;;;;;;70.32;27.77;;;;;;;;;;5028912;28;90447;-61
2022/11/15 00:32:56;;;;;;;65.50;27.60;;;;;;;;;;5015746;28;89516;-61
2022/11/15 00:35:22;;;;;;;67.70;25.83;;;;;;;;;;5034423;27;89443;-61
2022/11/15 00:37:48;;;;;;;70.88;26.33;;;;;;;;;;5013015;28;92768;-62
2022/11/15 00:40:15;;;;;;;66.18;27.27;;;;;;;;;;5015151;27;90984;-61
2022/11/15 00:42:41;;;;;;;72.80;28.30;;;;;;;;;;5014701;28;89966;-62
2022/11/15 00:45:08;;;;;;;65.43;26.38;;;;;;;;;;5012822;28;89516;-62
2022/11/15 00:47:34;;;;;;;67.20;26.75;;;;;;;;;;5015229;28;89323;-61
2022/11/15 00:50:01;;;;;;;78.78;27.88;;;;;;;;;;5021802;28;90054;-62
2022/11/15 00:52:27;;;;;;;74.25;27.85;;;;;;;;;;5021184;27;90610;-61
2022/11/15 00:54:53;;;;;;;64.75;26.98;;;;;;;;;;5014672;28;90240;-62
2022/11/15 00:57:19;;;;;;;71.80;28.27;;;;;;;;;;5035205;28;90308;-61
2022/11/15 00:59:45;;;;;;;66.50;26.60;;;;;;;;;;5013705;28;90512;-61
2022/11/15 01:02:12;;;;;;;64.03;26.80;;;;;;;;;;5015100;28;90105;-61
2022/11/15 01:04:39;;;;;;;64.93;25.70;;;;;;;;;;5019670;28;89987;-62
2022/11/15 01:07:05;;;;;;;73.53;28.27;;;;;;;;;;5020693;28;90185;-62
2022/11/15 01:09:31;;;;;;;78.68;27.10;;;;;;;;;;5019523;28;91180;-61
2022/11/15 01:11:57;;;;;;;66.80;27.80;;;;;;;;;;5016181;28;89899;-62
2022/11/15 01:14:24;;;;;;;67.75;28.80;;;;;;;;;;5016435;28;89454;-62
2022/11/15 01:16:51;;;;;;;64.93;26.85;;;;;;;;;;5025672;28;90130;-63
2022/11/15 01:19:17;;;;;;;78.68;29.30;;;;;;;;;;5029745;27;89282;-61
2022/11/15 01:21:43;;;;;;;75.53;28.13;;;;;;;;;;5018247;28;90658;-61
2022/11/15 01:24:12;;;;;;;69.15;28.40;;;;;;;;;;5013713;28;92073;-62
2022/11/15 01:26:39;;;;;;;66.38;25.77;;;;;;;;;;5015547;28;89233;-61
2022/11/15 01:29:05;;;;;;;62.28;27.00;;;;;;;;;;5017470;28;91024;-62
2022/11/15 01:31:31;;;;;;;59.95;27.05;;;;;;;;;;5018286;28;89527;-61
2022/11/15 01:33:57;;;;;;;68.10;26.35;;;;;;;;;;5015467;28;89270;-61
2022/11/15 01:36:24;;;;;;;63.88;26.40;;;;;;;;;;5022755;28;90072;-61
2022/11/15 01:38:55;;;;;;;64.75;26.45;;;;;;;;;;5023676;27;89578;-61
2022/11/15 01:41:22;;;;;;;63.78;27.35;;;;;;;;;;5021156;28;89569;-61
2022/11/15 01:43:51;;;;;;;69.75;26.92;;;;;;;;;;5034540;28;90017;-61
2022/11/15 01:46:32;;;;;;;78.82;27.55;;;;;;;;;;5027206;27;89125;-62
2022/11/15 01:48:58;;;;;;;;;;;;;;;;;;5017389;28;89822;-62
2022/11/15 01:51:26;;;;;;;60.13;25.98;;;;;;;;;;5026329;28;119332;-61
2022/11/15 01:53:55;;;;;;;74.45;27.35;;;;;;;;;;5034096;28;89828;-61
2022/11/15 01:56:24;;;;;;;60.75;26.33;;;;;;;;;;5016149;28;90043;-62
2022/11/15 01:58:51;;;;;;;65.25;26.33;;;;;;;;;;5016944;28;89751;-61
2022/11/15 02:01:17;;;;;;;67.60;27.42;;;;;;;;;;5015513;28;90038;-61
2022/11/15 02:03:51;;;;;;;67.32;26.85;;;;;;;;;;5020075;28;89960;-63
2022/11/15 02:06:18;;;;;;;64.70;27.17;;;;;;;;;;5014371;28;89617;-61
2022/11/15 02:08:44;;;;;;;65.20;26.25;;;;;;;;;;5033446;27;89981;-61
2022/11/15 02:11:10;;;;;;;59.28;25.80;;;;;;;;;;5017594;27;89562;-61
2022/11/15 02:13:37;;;;;;;53.63;27.45;;;;;;;;;;5013560;28;89408;-62
2022/11/15 02:16:09;;;;;;;60.00;25.42;;;;;;;;;;5016323;28;90374;-62
2022/11/15 02:18:38;;;;;;;55.70;26.08;;;;;;;;;;5024454;28;89589;-62
2022/11/15 02:21:09;;;;;;;60.42;25.42;;;;;;;;;;5022107;27;90142;-62
2022/11/15 02:23:54;;;;;;;58.15;25.73;;;;;;;;;;5016625;28;90035;-62
2022/11/15 02:26:20;;;;;;;56.40;25.30;;;;;;;;;;5026050;28;89153;-62
2022/11/15 02:29:02;;;;;;;60.70;27.80;;;;;;;;;;5019066;28;90012;-61
2022/11/15 02:31:28;;;;;;;58.33;26.17;;;;;;;;;;5028499;27;89905;-61
2022/11/15 02:33:54;;;;;;;60.47;25.23;;;;;;;;;;5023720;27;91115;-62
2022/11/15 02:36:20;;;;;;;56.28;26.35;;;;;;;;;;5019237;27;90328;-62
2022/11/15 02:38:56;;;;;;;56.78;26.33;;;;;;;;;;5015077;28;91093;-61
2022/11/15 02:41:26;;;;;;;54.40;26.85;;;;;;;;;;5023397;28;89408;-61
2022/11/15 02:44:13;;;;;;;45.50;24.83;;;;;;;;;;5020457;28;90070;-62
2022/11/15 02:49:35;;;;;;;57.45;25.27;;;;;;;;;;5021748;28;90049;-61
2022/11/15 02:52:01;;;;;;;56.13;25.20;;;;;;;;;;5022527;28;90794;-62
2022/11/15 02:54:31;;;;;;;57.80;25.48;;;;;;;;;;5015596;28;90304;-61
2022/11/15 02:57:00;;;;;;;51.90;26.23;;;;;;;;;;5017320;28;91077;-61
2022/11/15 02:59:30;;;;;;;53.17;25.05;;;;;;;;;;5026905;27;90283;-62
2022/11/15 03:02:16;;;;;;;62.05;25.17;;;;;;;;;;5017280;28;89209;-61
2022/11/15 03:04:54;;;;;;;48.53;24.23;;;;;;;;;;5027977;27;91215;-61
2022/11/15 03:07:23;;;;;;;49.80;24.33;;;;;;;;;;5019521;28;89900;-63
2022/11/15 03:09:54;;;;;;;48.20;23.50;;;;;;;;;;5029462;28;89968;-62
2022/11/15 03:12:27;;;;;;;46.38;24.58;;;;;;;;;;5015961;28;89369;-61
2022/11/15 03:15:01;;;;;;;42.67;22.45;;;;;;;;;;5023531;28;91497;-62
2022/11/15 03:17:29;;;;;;;46.00;23.38;;;;;;;;;;5014685;28;90013;-63
2022/11/15 03:19:57;;;;;;;46.25;23.83;;;;;;;;;;5013901;28;89594;-62
2022/11/15 03:22:26;;;;;;;44.72;23.10;;;;;;;;;;5023236;27;90508;-62
2022/11/15 03:24:54;;;;;;;42.33;23.65;;;;;;;;;;5016377;28;91226;-61
2022/11/15 03:27:23;;;;;;;44.35;22.75;;;;;;;;;;5016325;28;89506;-62
2022/11/15 03:29:52;;;;;;;47.67;23.83;;;;;;;;;;5015018;28;89423;-61
2022/11/15 03:32:25;;;;;;;43.90;24.42;;;;;;;;;;5019833;28;90346;-61
2022/11/15 03:35:02;;;;;;;47.17;24.30;;;;;;;;;;5015411;28;90697;-62
2022/11/15 03:37:37;;;;;;;47.33;24.75;;;;;;;;;;5020481;28;90431;-61
2022/11/15 03:40:03;;;;;;;49.65;24.52;;;;;;;;;;5024635;27;89568;-61
2022/11/15 03:42:31;;;;;;;46.80;25.63;;;;;;;;;;5017400;28;89014;-62
2022/11/15 03:45:16;;;;;;;46.20;24.90;;;;;;;;;;5034801;28;90019;-61
2022/11/15 03:47:53;;;;;;;55.72;25.85;;;;;;;;;;5020247;28;89716;-61
2022/11/15 03:50:20;;;;;;;48.83;25.92;;;;;;;;;;5023596;28;89025;-62
2022/11/15 03:52:47;;;;;;;53.20;24.30;;;;;;;;;;5014723;28;89984;-61
2022/11/15 03:55:15;;;;;;;49.83;25.40;;;;;;;;;;5029541;28;89597;-61
2022/11/15 03:57:42;;;;;;;44.97;25.25;;;;;;;;;;5014474;28;90011;-61
2022/11/15 04:00:08;;;;;;;49.25;27.13;;;;;;;;;;5015713;28;89588;-62
2022/11/15 04:02:34;;;;;;;52.72;25.48;;;;;;;;;;5003448;28;90318;-62
2022/11/15 04:05:01;;;;;;;49.58;24.35;;;;;;;;;;5027464;28;90056;-61
2022/11/15 04:07:27;;;;;;;56.22;26.65;;;;;;;;;;5012814;28;89634;-62
2022/11/15 04:10:03;;;;;;;52.45;27.33;;;;;;;;;;5024003;28;88976;-62
2022/11/15 04:12:33;;;;;;;55.00;25.80;;;;;;;;;;5017459;27;90263;-61
2022/11/15 04:15:09;;;;;;;47.40;25.70;;;;;;;;;;5017299;27;89590;-62
2022/11/15 04:17:40;;;;;;;63.13;29.08;;;;;;;;;;5017595;28;89187;-62
2022/11/15 04:25:43;;;;;;;59.05;26.25;;;;;;;;;;5018251;27;88839;-61
2022/11/15 04:28:10;;;;;;;52.33;27.08;;;;;;;;;;5018902;28;90632;-62
2022/11/15 04:30:37;;;;;;;52.22;27.95;;;;;;;;;;5029446;27;89248;-62
2022/11/15 04:33:03;;;;;;;52.60;26.25;;;;;;;;;;5014635;27;91061;-61
2022/11/15 04:35:30;;;;;;;47.00;25.92;;;;;;;;;;5010795;28;89510;-62
2022/11/15 04:37:57;;;;;;;49.80;25.60;;;;;;;;;;5027108;28;89992;-62
2022/11/15 04:40:23;;;;;;;49.53;27.45;;;;;;;;;;5035315;27;89565;-61
2022/11/15 04:42:49;;;;;;;46.80;25.52;;;;;;;;;;5037301;27;88981;-61
2022/11/15 04:45:15;;;;;;;48.35;26.73;;;;;;;;;;5019934;27;90072;-61
2022/11/15 04:47:45;;;;;;;57.53;27.42;;;;;;;;;;5022932;28;89882;-62
2022/11/15 04:50:13;;;;;;;57.17;27.97;;;;;;;;;;5019138;27;90682;-62
2022/11/15 04:52:43;;;;;;;57.95;27.65;;;;;;;;;;5017241;28;91067;-62
2022/11/15 04:55:10;;;;;;;56.60;27.95;;;;;;;;;;5016025;28;90654;-62
2022/11/15 04:57:37;;;;;;;58.22;28.58;;;;;;;;;;5016974;28;90066;-61
2022/11/15 05:00:04;;;;;;;59.42;29.08;;;;;;;;;;5020666;28;91049;-62
2022/11/15 05:04:18;;;;;;;55.08;28.60;;;;;;;;;;5017429;28;91265;-61
2022/11/15 05:05:17;;;;;;;50.20;27.98;;;;;;;;;;5019767;27;90058;-63
2022/11/15 05:07:43;;;;;;;53.53;28.27;;;;;;;;;;5017985;28;89619;-61
2022/11/15 05:10:09;;;;;;;50.58;27.02;;;;;;;;;;5016001;28;89037;-62
2022/11/15 05:12:36;;;;;;;48.80;25.50;;;;;;;;;;5016694;28;89974;-62
2022/11/15 05:15:02;;;;;;;47.08;26.05;;;;;;;;;;5017334;28;89518;-62
2022/11/15 05:17:28;;;;;;;45.30;25.42;;;;;;;;;;5018866;28;89704;-62
2022/11/15 05:19:55;;;;;;;51.22;26.17;;;;;;;;;;5018118;28;89022;-62
2022/11/15 05:22:21;;;;;;;52.65;26.20;;;;;;;;;;5021258;28;91054;-61
2022/11/15 05:24:48;;;;;;;48.28;27.05;;;;;;;;;;5018072;28;91206;-62
2022/11/15 05:27:14;;;;;;;50.25;25.92;;;;;;;;;;5018028;28;89893;-62
2022/11/15 05:29:40;;;;;;;47.05;26.67;;;;;;;;;;5015874;28;93568;-62
2022/11/15 05:32:08;;;;;;;45.95;25.55;;;;;;;;;;5016247;28;94222;-62
2022/11/15 05:34:34;;;;;;;43.90;25.23;;;;;;;;;;5013934;28;92831;-62
2022/11/15 05:37:01;;;;;;;59.20;28.52;;;;;;;;;;4999611;28;93667;-62
2022/11/15 05:39:27;;;;;;;46.30;25.10;;;;;;;;;;5021127;28;94963;-61
2022/11/15 05:42:02;;;;;;;45.17;24.98;;;;;;;;;;5019529;27;95926;-61
2022/11/15 05:44:30;;;;;;;42.50;24.25;;;;;;;;;;5028645;28;93396;-62
2022/11/15 05:46:57;;;;;;;50.40;25.20;;;;;;;;;;5015416;28;93560;-62
2022/11/15 05:49:25;;;;;;;55.95;25.92;;;;;;;;;;5014263;28;94024;-61
2022/11/15 05:51:51;;;;;;;48.50;24.80;;;;;;;;;;5017293;28;92681;-62
2022/11/15 05:54:19;;;;;;;57.65;25.60;;;;;;;;;;5014247;28;94550;-62
2022/11/15 05:56:46;;;;;;;45.92;25.27;;;;;;;;;;5015148;28;93300;-61
2022/11/15 05:59:12;;;;;;;41.88;24.02;;;;;;;;;;5026357;27;92492;-61
2022/11/15 06:01:39;;;;;;;53.10;26.02;;;;;;;;;;5025826;28;93832;-61
2022/11/15 06:04:05;;;;;;;49.72;24.67;;;;;;;;;;5018740;27;95957;-61
2022/11/15 06:06:32;;;;;;;52.80;26.85;;;;;;;;;;5029437;28;92504;-61
2022/11/15 06:08:58;;;;;;;48.72;26.70;;;;;;;;;;5016765;28;94888;-62
2022/11/15 06:11:24;;;;;;;52.05;28.08;;;;;;;;;;5024320;27;92541;-62
2022/11/15 06:13:51;;;;;;;56.67;28.13;;;;;;;;;;5018742;27;93568;-62
2022/11/15 06:16:17;;;;;;;54.10;27.83;;;;;;;;;;5014238;28;93628;-62
2022/11/15 06:18:43;;;;;;;50.42;26.00;;;;;;;;;;5014033;28;93932;-61
2022/11/15 06:21:09;;;;;;;52.42;27.52;;;;;;;;;;5013140;28;93630;-62
2022/11/15 06:23:36;;;;;;;49.38;25.20;;;;;;;;;;5015782;28;93943;-61
2022/11/15 06:26:02;;;;;;;46.20;26.00;;;;;;;;;;5019491;28;92547;-62
2022/11/15 06:28:29;;;;;;;45.88;25.50;;;;;;;;;;5032770;27;94936;-62
2022/11/15 06:30:56;;;;;;;51.08;26.17;;;;;;;;;;5030584;27;92466;-62
2022/11/15 06:33:23;;;;;;;51.78;26.33;;;;;;;;;;5015297;28;93239;-62
2022/11/15 06:35:49;;;;;;;53.10;26.83;;;;;;;;;;5018313;28;93402;-62
2022/11/15 06:38:15;;;;;;;60.15;26.13;;;;;;;;;;5011913;28;92481;-62
2022/11/15 06:40:41;;;;;;;52.78;28.63;;;;;;;;;;5016832;28;93431;-61
2022/11/15 06:43:08;;;;;;;46.03;25.20;;;;;;;;;;5019892;28;93419;-62
2022/11/15 06:45:34;;;;;;;58.08;29.27;;;;;;;;;;5020062;28;91728;-61
2022/11/15 06:48:00;;;;;;;54.33;28.05;;;;;;;;;;5015966;28;95714;-62
2022/11/15 06:50:26;;;;;;;52.22;27.50;;;;;;;;;;5013488;28;92470;-63
2022/11/15 06:52:54;;;;;;;49.28;26.20;;;;;;;;;;5018226;28;94846;-62
2022/11/15 06:55:20;;;;;;;51.85;26.02;;;;;;;;;;5020053;28;93692;-62
2022/11/15 06:57:47;;;;;;;62.65;28.08;;;;;;;;;;5012746;28;92525;-62
2022/11/15 07:00:14;;;;;;;46.35;26.05;;;;;;;;;;5018332;28;93090;-62
2022/11/15 07:02:40;;;;;;;51.47;26.52;;;;;;;;;;5022668;28;93946;-61
2022/11/15 07:05:06;;;;;;;51.42;28.17;;;;;;;;;;5019088;28;92558;-62
2022/11/15 07:07:33;;;;;;;59.58;25.52;;;;;;;;;;5020714;27;93298;-62
2022/11/15 07:09:59;;;;;;;54.20;28.33;;;;;;;;;;5017083;28;93462;-62
2022/11/15 07:12:25;;;;;;;54.85;27.88;;;;;;;;;;5010921;28;92828;-62
2022/11/15 07:14:52;;;;;;;51.35;26.70;;;;;;;;;;5000612;27;93504;-62
2022/11/15 07:17:18;;;;;;;64.25;26.75;;;;;;;;;;5027173;28;95471;-62
2022/11/15 07:19:44;;;;;;;51.47;25.67;;;;;;;;;;5012233;28;95658;-61
2022/11/15 07:22:10;;;;;;;50.97;24.25;;;;;;;;;;5012511;28;93443;-63
2022/11/15 07:24:36;;;;;;;45.10;23.90;;;;;;;;;;5015809;28;93645;-62
2022/11/15 07:27:03;;;;;;;50.95;23.48;;;;;;;;;;5012785;28;93155;-63
2022/11/15 07:29:29;;;;;;;46.88;24.08;;;;;;;;;;5020397;28;93439;-62
2022/11/15 07:31:55;;;;;;;40.92;23.70;;;;;;;;;;5017670;27;93322;-61
2022/11/15 07:34:22;;;;;;;48.35;23.48;;;;;;;;;;5017481;28;93524;-61
2022/11/15 07:36:48;;;;;;;42.67;22.08;;;;;;;;;;5008408;28;92558;-62
2022/11/15 07:39:14;;;;;;;44.38;23.15;;;;;;;;;;5006430;28;93174;-61
2022/11/15 07:41:41;;;;;;;40.35;21.85;;;;;;;;;;5010257;28;96871;-62
2022/11/15 07:44:07;;;;;;;46.83;20.60;;;;;;;;;;5013248;28;92495;-62
2022/11/15 07:46:33;;;;;;;42.33;21.58;;;;;;;;;;5014038;28;94228;-63
2022/11/15 07:48:59;;;;;;;44.90;21.58;;;;;;;;;;5010991;28;93764;-62
2022/11/15 07:51:26;;;;;;;42.17;20.75;;;;;;;;;;5011050;28;92492;-62
2022/11/15 07:53:52;;;;;;;38.55;20.00;;;;;;;;;;5011848;28;94264;-61
2022/11/15 07:56:20;;;;;;;39.88;21.40;;;;;;;;;;5016342;28;92436;-62
2022/11/15 07:58:47;;;;;;;48.75;20.73;;;;;;;;;;5012604;28;93581;-62
2022/11/15 08:01:13;;;;;;;38.63;20.38;;;;;;;;;;5013179;28;93389;-62
2022/11/15 08:03:39;;;;;;;37.65;19.05;;;;;;;;;;5015952;27;92516;-61
2022/11/15 08:06:05;;;;;;;37.92;20.48;;;;;;;;;;5018204;28;96037;-62
2022/11/15 08:08:32;;;;;;;41.30;20.08;;;;;;;;;;5012524;28;94405;-62
2022/11/15 08:10:58;;;;;;;40.63;20.35;;;;;;;;;;5013343;28;92525;-62
2022/11/15 08:13:24;;;;;;;35.05;18.63;;;;;;;;;;5009132;28;93232;-61
2022/11/15 08:15:51;;;;;;;34.85;19.95;;;;;;;;;;5016469;28;94466;-62
2022/11/15 08:18:23;;;;;;;35.17;17.75;;;;;;;;;;5013266;28;93763;-62
2022/11/15 08:20:49;;;;;;;32.60;18.17;;;;;;;;;;5012440;28;93465;-62
2022/11/15 08:23:15;;;;;;;30.60;17.98;;;;;;;;;;5013298;28;92819;-62
2022/11/15 08:25:41;;;;;;;31.50;17.20;;;;;;;;;;5011609;28;92454;-62
2022/11/15 08:28:09;;;;;;;34.22;17.77;;;;;;;;;;5013442;28;93359;-63
2022/11/15 08:30:37;;;;;;;25.60;15.68;;;;;;;;;;5008554;27;96629;-68
2022/11/15 08:33:03;;;;;;;33.70;18.25;;;;;;;;;;5013357;28;95828;-62
2022/11/15 08:35:30;;;;;;;29.25;17.25;;;;;;;;;;5013942;28;96761;-62
2022/11/15 08:37:56;;;;;;;28.42;16.60;;;;;;;;;;5014805;28;93351;-62
2022/11/15 08:40:22;;;;;;;33.35;17.23;;;;;;;;;;5010091;28;93750;-62
2022/11/15 08:42:49;;;;;;;31.95;17.13;;;;;;;;;;5023077;28;92385;-62
2022/11/15 08:45:15;;;;;;;32.45;17.27;;;;;;;;;;5030933;27;94118;-62
2022/11/15 08:47:41;;;;;;;28.90;17.40;;;;;;;;;;5012858;28;93015;-62
2022/11/15 08:50:08;;;;;;;28.10;16.83;;;;;;;;;;5013638;28;92407;-62
2022/11/15 08:52:34;;;;;;;28.65;17.77;;;;;;;;;;5013445;28;93243;-62
2022/11/15 08:55:01;;;;;;;32.03;17.48;;;;;;;;;;5013492;28;96480;-62
2022/11/15 08:57:30;;;;;;;26.20;17.15;;;;;;;;;;5031042;27;92564;-62
2022/11/15 08:59:56;;;;;;;24.98;15.82;;;;;;;;;;5026303;28;94461;-62
2022/11/15 09:02:23;;;;;;;30.40;16.20;;;;;;;;;;5012887;28;92421;-62
2022/11/15 09:04:49;;;;;;;25.42;16.60;;;;;;;;;;5015678;28;93219;-62
2022/11/15 09:07:16;;;;;;;28.45;15.90;;;;;;;;;;5024700;27;93375;-62
2022/11/15 09:09:42;;;;;;;29.27;14.80;;;;;;;;;;5013473;27;92461;-62
2022/11/15 09:12:08;;;;;;;25.00;15.25;;;;;;;;;;5013758;28;94147;-63
2022/11/15 09:14:35;;;;;;;29.23;15.05;;;;;;;;;;5013112;28;93384;-62
2022/11/15 09:17:02;;;;;;;29.13;14.93;;;;;;;;;;5013524;28;93334;-62
2022/11/15 09:19:28;;;;;;;23.38;14.18;;;;;;;;;;5014804;28;94920;-62
2022/11/15 09:21:54;;;;;;;21.38;14.02;;;;;;;;;;5013372;28;92399;-62
2022/11/15 09:24:20;;;;;;;23.33;13.98;;;;;;;;;;5019677;28;94885;-62
2022/11/15 09:26:49;;;;;;;21.77;12.57;;;;;;;;;;5016584;27;93893;-63
2022/11/15 09:29:15;;;;;;;26.17;13.07;;;;;;;;;;5016350;28;92688;-62
2022/11/15 09:31:41;;;;;;;27.85;11.27;;;;;;;;;;5036558;27;93235;-62
2022/11/15 09:34:08;;;;;;;19.38;12.00;;;;;;;;;;5023232;27;93832;-62
2022/11/15 09:36:34;;;;;;;23.55;11.02;;;;;;;;;;5024580;28;91779;-62
2022/11/15 09:39:01;;;;;;;17.65;10.90;;;;;;;;;;5034613;28;92471;-64
2022/11/15 09:41:27;;;;;;;22.77;9.82;;;;;;;;;;5032890;28;94432;-62
2022/11/15 09:44:12;;;;;;;19.60;10.27;;;;;;;;;;5023827;27;96591;-62
2022/11/15 09:46:57;;;;;;;14.45;9.07;;;;;;;;;;5021359;27;93544;-61
2022/11/15 09:49:23;;;;;;;15.55;9.20;;;;;;;;;;5011450;28;93158;-61
2022/11/15 09:51:50;;;;;;;20.92;8.77;;;;;;;;;;5010454;28;93828;-61
2022/11/15 09:54:25;;;;;;;14.75;7.60;;;;;;;;;;5010307;28;93422;-61
2022/11/15 09:57:13;;;;;;;14.32;7.50;;;;;;;;;;5013506;28;92440;-61
2022/11/15 10:00:00;;;;;;;9.63;7.00;;;;;;;;;;5023871;28;93476;-61
2022/11/15 10:02:46;;;;;;;11.40;6.93;;;;;;;;;;5013808;28;91808;-62
2022/11/15 10:05:15;;;;;;;15.25;7.63;;;;;;;;;;5017386;28;92745;-61
2022/11/15 10:07:51;;;;;;;14.52;7.32;;;;;;;;;;5015972;28;93447;-63
2022/11/15 10:10:24;;;;;;;10.23;6.32;;;;;;;;;;5015262;28;94788;-62
2022/11/15 10:12:52;;;;;;;11.82;5.95;;;;;;;;;;5013075;28;95497;-63
2022/11/15 10:15:22;;;;;;;12.15;5.50;;;;;;;;;;5015310;28;92861;-62
2022/11/15 10:18:07;;;;;;;12.70;5.30;;;;;;;;;;5015989;28;92363;-63
2022/11/15 10:20:40;;;;;;;12.68;5.72;;;;;;;;;;5016453;28;93557;-62
2022/11/15 10:23:10;;;;;;;11.98;5.90;;;;;;;;;;5014583;28;94376;-62
2022/11/15 10:25:38;;;;;;;14.40;6.40;;;;;;;;;;5015140;28;92636;-63
2022/11/15 10:28:10;;;;;;;15.60;5.63;;;;;;;;;;5020917;28;93155;-62
2022/11/15 10:30:37;;;;;;;13.57;5.85;;;;;;;;;;5031151;27;92464;-63
2022/11/15 10:33:16;;;;;;;14.38;4.35;;;;;;;;;;5027551;27;93494;-63
2022/11/15 10:35:42;;;;;;;11.07;5.05;;;;;;;;;;5011604;28;96077;-63
2022/11/15 10:38:09;;;;;;;6.13;3.58;;;;;;;;;;5016192;28;92459;-63
2022/11/15 10:40:36;;;;;;;7.93;3.10;;;;;;;;;;5015837;28;93057;-63
2022/11/15 10:43:09;;;;;;;9.18;3.22;;;;;;;;;;5013424;28;94184;-63
2022/11/15 10:45:36;;;;;;;8.50;3.50;;;;;;;;;;5015028;28;92528;-63
2022/11/15 10:48:21;;;;;;;7.18;3.85;;;;;;;;;;5018582;28;92377;-63
2022/11/15 10:50:48;;;;;;;4.63;3.15;;;;;;;;;;5025495;28;92460;-63
2022/11/15 10:53:23;;;;;;;5.75;3.17;;;;;;;;;;5030189;27;93528;-63
2022/11/15 10:55:52;;;;;;;5.13;2.72;;;;;;;;;;5014157;28;95688;-62
2022/11/15 10:58:38;;;;;;;8.10;3.25;;;;;;;;;;5021925;28;93406;-62
2022/11/15 11:01:10;;;;;;;8.00;2.83;;;;;;;;;;5017661;27;94741;-63
2022/11/15 11:03:38;;;;;;;4.88;2.45;;;;;;;;;;5010190;28;94809;-64
2022/11/15 11:06:04;;;;;;;5.47;2.63;;;;;;;;;;5021013;27;92538;-62
2022/11/15 11:08:31;;;;;;;9.68;2.65;;;;;;;;;;5036036;27;94414;-62
2022/11/15 11:10:59;;;;;;;8.15;2.38;;;;;;;;;;5024001;27;92662;-63
2022/11/15 11:13:28;;;;;;;;;;;;;;;;;;5016244;28;93205;-63
2022/11/15 11:16:13;;;;;;;6.68;2.63;;;;;;;;;;5014484;28;124086;-62
2022/11/15 11:18:39;;;;;;;6.78;2.33;;;;;;;;;;5036301;27;91685;-63
2022/11/15 11:21:11;;;;;;;7.78;2.30;;;;;;;;;;5020505;27;93813;-63
2022/11/15 11:23:46;;;;;;;5.22;2.15;;;;;;;;;;5018910;28;93839;-63
2022/11/15 11:26:31;;;;;;;3.17;2.08;;;;;;;;;;5011022;27;94899;-63
2022/11/15 11:29:17;;;;;;;5.78;2.15;;;;;;;;;;5015670;28;96526;-63
2022/11/15 11:31:53;;;;;;;8.48;2.10;;;;;;;;;;5014964;28;94742;-63
2022/11/15 11:34:29;;;;;;;3.63;2.15;;;;;;;;;;5021656;27;92969;-63
2022/11/15 11:37:05;;;;;;;3.60;1.70;;;;;;;;;;5014043;28;93384;-62
2022/11/15 11:39:44;;;;;;;7.47;1.83;;;;;;;;;;5015273;28;92561;-62
2022/11/15 11:42:16;;;;;;;10.77;2.15;;;;;;;;;;5017276;27;93425;-64
2022/11/15 11:45:05;;;;;;;38.28;5.10;;;;;;;;;;5017710;28;92619;-62
2022/11/15 11:47:35;;;;;;;16.10;3.20;;;;;;;;;;5009295;28;92440;-62
2022/11/15 11:50:10;;;;;;;5.63;2.25;;;;;;;;;;5015303;28;94217;-62
2022/11/15 11:52:43;;;;;;;2.63;1.52;;;;;;;;;;5012364;28;95956;-62
2022/11/15 11:55:15;;;;;;;4.90;1.48;;;;;;;;;;5007887;28;92546;-62
2022/11/15 11:57:42;;;;;;;6.53;2.00;;;;;;;;;;5019328;28;93380;-62
2022/11/15 12:00:11;;;;;;;3.30;1.30;;;;;;;;;;5013843;28;92428;-62
2022/11/15 12:02:39;;;;;;;7.20;1.88;;;;;;;;;;5012550;28;94499;-61
2022/11/15 12:05:29;;;;;;;10.90;1.98;;;;;;;;;;5012820;28;93861;-61
2022/11/15 12:08:01;;;;;;;6.45;1.90;;;;;;;;;;5004070;28;93973;-61
2022/11/15 12:10:31;;;;;;;4.35;1.58;;;;;;;;;;4995536;28;93265;-62
2022/11/15 12:13:10;;;;;;;5.13;1.52;;;;;;;;;;5024216;28;93395;-62
2022/11/15 12:15:42;;;;;;;5.47;1.60;;;;;;;;;;5022592;27;94165;-64
2022/11/15 12:18:12;;;;;;;5.20;1.60;;;;;;;;;;5012986;28;94705;-62
2022/11/15 12:20:41;;;;;;;6.57;1.75;;;;;;;;;;5017530;28;92624;-63
2022/11/15 12:23:16;;;;;;;4.07;1.40;;;;;;;;;;5027385;28;93141;-62
2022/11/15 12:25:57;;;;;;;3.08;1.63;;;;;;;;;;5024207;28;93285;-63
2022/11/15 12:28:42;;;;;;;2.65;1.45;;;;;;;;;;5005283;28;92428;-62
2022/11/15 12:31:28;;;;;;;4.50;1.60;;;;;;;;;;5013971;28;92857;-62
2022/11/15 12:33:56;;;;;;;9.63;1.50;;;;;;;;;;5011568;28;93407;-62
2022/11/15 12:36:22;;;;;;;9.77;1.75;;;;;;;;;;4994986;28;91822;-63
2022/11/15 12:38:57;;;;;;;4.00;1.60;;;;;;;;;;5016569;28;92737;-63
2022/11/15 12:41:28;;;;;;;3.72;1.52;;;;;;;;;;5027320;28;93509;-62
2022/11/15 12:43:54;;;;;;;;;;;;;;;;;;5027145;27;94865;-62
2022/11/15 12:46:21;;;;;;;7.78;1.70;;;;;;;;;;5021625;28;123963;-62
2022/11/15 12:48:50;;;;;;;10.65;1.83;;;;;;;;;;5034427;27;92688;-62
2022/11/15 12:51:17;;;;;;;7.88;1.80;;;;;;;;;;5033162;28;94195;-62
2022/11/15 12:53:43;;;;;;;6.85;1.45;;;;;;;;;;5018283;27;95232;-62
2022/11/15 12:56:18;;;;;;;9.50;1.83;;;;;;;;;;5011586;28;92578;-62
2022/11/15 12:59:02;;;;;;;7.53;1.60;;;;;;;;;;5017014;28;93123;-61
2022/11/15 13:01:33;;;;;;;7.18;1.70;;;;;;;;;;5018019;28;93805;-62
2022/11/15 13:04:18;;;;;;;5.95;1.80;;;;;;;;;;5019356;28;92455;-62
2022/11/15 13:06:44;;;;;;;4.93;1.73;;;;;;;;;;5016512;28;92634;-62
2022/11/15 13:09:25;;;;;;;5.80;1.83;;;;;;;;;;5012510;28;95439;-62
2022/11/15 13:11:52;;;;;;;8.95;1.75;;;;;;;;;;5018021;27;95471;-62
2022/11/15 13:14:36;;;;;;;11.20;2.30;;;;;;;;;;5022558;28;92662;-62
2022/11/15 13:17:12;;;;;;;4.80;1.65;;;;;;;;;;5017821;28;92831;-62
2022/11/15 13:19:38;;;;;;;5.55;2.00;;;;;;;;;;5014657;28;93828;-63
2022/11/15 13:24:54;;;;;;;8.73;2.05;;;;;;;;;;5012030;28;92484;-62
2022/11/15 13:27:20;;;;;;;9.90;4.10;;;;;;;;;;5029975;28;93531;-62
2022/11/15 13:29:47;;;;;;;8.00;1.58;;;;;;;;;;5037580;27;92417;-62
2022/11/15 13:32:15;;;;;;;8.25;3.78;;;;;;;;;;5019515;27;93199;-62
2022/11/15 13:34:48;;;;;;;9.32;2.97;;;;;;;;;;5014099;28;95768;-62
2022/11/15 13:37:21;;;;;;;9.63;2.45;;;;;;;;;;5017510;28;92604;-62
2022/11/15 13:39:48;;;;;;;6.85;3.28;;;;;;;;;;5036325;27;93623;-63
2022/11/15 13:42:15;;;;;;;13.10;2.63;;;;;;;;;;5026828;28;93536;-62
2022/11/15 13:44:55;;;;;;;8.98;1.73;;;;;;;;;;5029853;28;92764;-62
2022/11/15 13:47:21;;;;;;;8.43;2.58;;;;;;;;;;5015873;28;97346;-63
2022/11/15 13:49:47;;;;;;;6.72;2.22;;;;;;;;;;5019333;28;93420;-62
2022/11/15 13:52:16;;;;;;;5.10;1.70;;;;;;;;;;5021644;28;93060;-62
2022/11/15 13:55:00;;;;;;;8.30;2.08;;;;;;;;;;5033120;28;93547;-62
2022/11/15 13:57:27;;;;;;;4.90;1.85;;;;;;;;;;4997560;28;92552;-63
2022/11/15 14:00:02;;;;;;;5.93;1.75;;;;;;;;;;5014797;28;94839;-62
2022/11/15 14:02:32;;;;;;;10.05;2.17;;;;;;;;;;5013748;28;93523;-63
2022/11/15 14:05:16;;;;;;;4.68;2.05;;;;;;;;;;5015958;28;92559;-63
2022/11/15 14:08:12;;;;;;;4.47;1.80;;;;;;;;;;5001681;28;92438;-61
2022/11/15 14:10:39;;;;;;;8.75;2.30;;;;;;;;;;5014930;28;93477;-63
2022/11/15 14:13:11;;;;;;;5.53;1.90;;;;;;;;;;5038586;27;92380;-62
2022/11/15 14:15:38;;;;;;;19.88;2.45;;;;;;;;;;5029753;27;93445;-62
2022/11/15 14:18:05;;;;;;;12.35;2.53;;;;;;;;;;5015870;28;91927;-63
2022/11/15 14:20:32;;;;;;;7.70;1.90;;;;;;;;;;5015332;28;93571;-62
2022/11/15 14:23:00;;;;;;;7.13;2.15;;;;;;;;;;5014846;28;93652;-62
2022/11/15 14:25:27;;;;;;;7.70;1.88;;;;;;;;;;5014714;28;94924;-62
2022/11/15 14:28:12;;;;;;;8.45;2.50;;;;;;;;;;5014732;28;98541;-62
2022/11/15 14:30:39;;;;;;;4.25;1.88;;;;;;;;;;5013952;28;93441;-63
2022/11/15 14:33:35;;;;;;;8.38;2.40;;;;;;;;;;5015921;28;92429;-62
2022/11/15 14:36:05;;;;;;;10.98;2.47;;;;;;;;;;5014046;28;94270;-63
2022/11/15 14:38:31;;;;;;;;;;;;;;;;;;5012912;28;95434;-63
2022/11/15 14:40:59;;;;;;;6.10;2.08;;;;;;;;;;5025043;28;124033;-62
2022/11/15 14:43:25;;;;;;;6.82;2.05;;;;;;;;;;5035002;28;93166;-63
2022/11/15 14:45:52;;;;;;;6.60;2.47;;;;;;;;;;5021971;27;92415;-62
2022/11/15 14:48:18;;;;;;;4.15;1.90;;;;;;;;;;5012708;28;93651;-62
2022/11/15 14:50:44;;;;;;;7.72;2.83;;;;;;;;;;5014308;28;96815;-63